Time;durP1;ratioP1;P1;durP2;ratioP2;P2;SDS_P1;SDS_P2;PMS_P1;PMS_P2;Temp;Humidity;BMP_temperature;BMP_pressure;BME280_temperature;BME280_humidity;BME280_pressure;Samples;Min_cycle;Max_cycle;Signal;HPM_P1;HPM_P2
2022/10/01 00:00:33;;;;;;;12.23;7.18;;;;;;;16.64;90.37;100747.88;5027192;28;20041;-73
2022/10/01 00:02:59;;;;;;;10.68;6.60;;;;;;;17.32;89.49;100844.66;5032486;28;20037;-74
2022/10/01 00:05:26;;;;;;;15.65;6.88;;;;;;;16.95;89.49;100782.66;5033036;28;20064;-73
2022/10/01 00:07:51;;;;;;;12.88;7.57;;;;;;;17.16;90.88;100868.84;5017331;28;20373;-74
2022/10/01 00:10:17;;;;;;;13.48;7.43;;;;;;;16.40;91.94;100752.75;5029101;28;20041;-74
2022/10/01 00:12:45;;;;;;;15.60;6.45;;;;;;;17.17;91.28;100872.38;5027020;28;20049;-73
2022/10/01 00:15:15;;;;;;;12.93;6.97;;;;;;;17.24;90.65;100874.84;5030110;28;20049;-74
2022/10/01 00:17:42;;;;;;;11.30;7.15;;;;;;;15.74;91.06;100618.09;5029073;28;20045;-73
2022/10/01 00:20:09;;;;;;;12.40;7.28;;;;;;;16.29;90.21;100707.03;5012728;28;20034;-73
2022/10/01 00:22:35;;;;;;;14.98;7.30;;;;;;;17.24;89.77;100885.47;5002916;28;20088;-74
2022/10/01 00:25:02;;;;;;;13.45;8.23;;;;;;;16.82;89.03;100803.22;5031307;28;20039;-72
2022/10/01 00:27:28;;;;;;;13.77;7.95;;;;;;;17.00;88.52;100812.59;5048451;28;20057;-72
2022/10/01 00:29:54;;;;;;;21.48;7.75;;;;;;;17.41;88.35;100874.50;5025545;28;20330;-73
2022/10/01 00:32:20;;;;;;;20.63;8.13;;;;;;;17.35;89.31;100861.38;5034166;28;20045;-72
2022/10/01 00:34:46;;;;;;;13.90;7.72;;;;;;;17.16;89.79;100834.38;5044182;28;20061;-74
2022/10/01 00:37:11;;;;;;;18.38;7.47;;;;;;;16.39;89.67;100727.19;5047097;28;20059;-72
2022/10/01 00:39:37;;;;;;;12.25;6.20;;;;;;;16.19;89.73;100710.78;5028696;28;20064;-74
2022/10/01 00:42:23;;;;;;;22.88;6.82;;;;;;;16.98;89.61;100821.47;5038364;28;20053;-74
2022/10/01 00:44:49;;;;;;;11.20;6.78;;;;;;;16.97;90.77;100814.41;5023548;28;20281;-73
2022/10/01 00:47:32;;;;;;;12.30;7.07;;;;;;;17.12;92.87;100869.81;5018878;28;20040;-72
2022/10/01 00:50:25;;;;;;;17.50;7.93;;;;;;;16.99;92.25;100874.44;5011761;28;20099;-73
2022/10/01 00:52:58;;;;;;;13.83;7.63;;;;;;;16.07;94.08;100721.59;5027656;28;20473;-73
2022/10/01 00:55:35;;;;;;;14.10;6.38;;;;;;;16.81;93.13;100869.50;5030780;28;20109;-73
2022/10/01 00:58:02;;;;;;;9.90;6.05;;;;;;;16.98;91.78;100867.41;5032316;28;20053;-74
2022/10/01 01:00:28;;;;;;;15.70;7.28;;;;;;;16.25;90.79;100732.72;5012193;28;20030;-74
2022/10/01 01:02:53;;;;;;;14.30;8.10;;;;;;;16.98;91.26;100863.91;5036331;28;20083;-73
2022/10/01 01:05:21;;;;;;;15.52;7.18;;;;;;;16.99;91.13;100868.28;5045103;28;20483;-73
2022/10/01 01:07:52;;;;;;;12.85;7.28;;;;;;;16.45;91.58;100768.56;5037619;28;20539;-74
2022/10/01 01:10:33;;;;;;;10.25;6.97;;;;;;;16.15;92.62;100707.28;5023730;28;20033;-72
2022/10/01 01:13:11;;;;;;;13.75;6.90;;;;;;;16.94;93.05;100871.03;5015856;28;20119;-73
2022/10/01 01:15:52;;;;;;;11.75;6.47;;;;;;;15.90;93.79;100690.13;5027434;28;20140;-73
2022/10/01 01:18:35;;;;;;;9.27;6.10;;;;;;;16.70;93.18;100867.03;5027529;28;20073;-72
2022/10/01 01:21:18;;;;;;;12.95;7.50;;;;;;;16.72;92.81;100857.28;5025838;28;20072;-73
2022/10/01 01:24:10;;;;;;;;;;;;;;;16.49;94.08;100854.16;5026374;28;20064;-73
2022/10/01 01:26:45;;;;;;;16.75;6.97;;;;;;;16.53;94.12;100851.44;5014972;28;19977;-73
2022/10/01 01:29:23;;;;;;;11.45;6.28;;;;;;;16.50;93.03;100829.41;5028966;28;20041;-74
2022/10/01 01:31:49;;;;;;;16.63;6.45;;;;;;;16.68;93.85;100844.97;5023240;28;20033;-74
2022/10/01 01:34:23;;;;;;;12.63;6.85;;;;;;;15.84;95.31;100704.31;5039329;28;20080;-74
2022/10/01 01:37:10;;;;;;;21.63;7.63;;;;;;;16.67;95.04;100843.25;5012203;28;20043;-73
2022/10/01 01:39:40;;;;;;;13.77;7.75;;;;;;;15.93;94.19;100722.69;5027156;28;20128;-74
2022/10/01 01:42:13;;;;;;;13.57;7.07;;;;;;;16.44;94.66;100843.63;5023381;28;20049;-73
2022/10/01 01:44:42;;;;;;;21.35;8.00;;;;;;;15.60;94.87;100700.28;5026462;28;20037;-73
2022/10/01 01:47:10;;;;;;;19.95;7.97;;;;;;;15.41;95.75;100699.72;5009862;28;20085;-73
2022/10/01 01:49:38;;;;;;;12.48;8.38;;;;;;;16.20;94.83;100819.31;5019114;28;20027;-73
2022/10/01 01:52:14;;;;;;;16.20;9.20;;;;;;;16.48;95.60;100868.28;5046749;28;20028;-72
2022/10/01 01:54:46;;;;;;;13.52;8.05;;;;;;;16.43;97.46;100869.22;5041018;28;20160;-73
2022/10/01 01:57:13;;;;;;;22.92;9.18;;;;;;;15.69;97.20;100726.59;5029093;28;20049;-73
2022/10/01 01:59:40;;;;;;;16.25;8.50;;;;;;;15.52;97.16;100696.88;5020893;28;20029;-73
2022/10/01 02:02:06;;;;;;;16.25;9.55;;;;;;;16.24;97.64;100866.00;5025095;28;20048;-74
2022/10/01 02:04:56;;;;;;;21.38;9.55;;;;;;;16.31;97.93;100887.13;5018540;28;20381;-74
2022/10/01 02:07:38;;;;;;;14.35;8.63;;;;;;;16.07;97.11;100844.25;4994819;28;20061;-73
2022/10/01 02:10:07;;;;;;;18.85;8.10;;;;;;;16.21;97.33;100895.19;5004743;28;20081;-72
2022/10/01 02:12:44;;;;;;;11.13;8.32;;;;;;;16.39;95.98;100887.88;5019189;28;20489;-72
2022/10/01 02:15:25;;;;;;;14.40;8.98;;;;;;;15.57;96.12;100764.69;5027260;28;20045;-72
2022/10/01 02:17:56;;;;;;;14.52;8.73;;;;;;;16.15;96.08;100879.41;5023710;28;20092;-75
2022/10/01 02:20:29;;;;;;;12.95;9.00;;;;;;;16.16;95.19;100853.81;5026462;28;20049;-73
2022/10/01 02:22:57;;;;;;;;;;;;;;;16.36;94.42;100883.47;5027828;28;20045;-73
2022/10/01 02:25:27;;;;;;;15.40;8.38;;;;;;;16.06;94.83;100833.66;5036658;28;19908;-73
2022/10/01 02:28:00;;;;;;;16.77;8.93;;;;;;;15.40;94.95;100748.19;5041664;28;20139;-76
2022/10/01 02:30:29;;;;;;;17.15;9.00;;;;;;;15.40;95.98;100764.06;5024042;28;20054;-73
2022/10/01 02:32:57;;;;;;;20.63;9.20;;;;;;;15.13;96.60;100726.53;5029513;28;20143;-73
2022/10/01 02:35:24;;;;;;;10.00;7.65;;;;;;;16.01;96.88;100862.84;5024892;28;20046;-73
2022/10/01 02:37:55;;;;;;;16.67;9.88;;;;;;;16.09;98.18;100862.75;5012167;28;20051;-73
2022/10/01 02:40:27;;;;;;;15.93;7.78;;;;;;;15.84;98.73;100844.59;5026895;28;20457;-74
2022/10/01 02:42:58;;;;;;;21.48;8.52;;;;;;;16.08;97.21;100883.03;5021360;28;20058;-74
2022/10/01 02:45:26;;;;;;;19.88;9.57;;;;;;;15.87;97.37;100838.38;5024271;28;20068;-73
2022/10/01 02:48:03;;;;;;;17.05;9.10;;;;;;;14.97;96.42;100695.94;5039868;28;20229;-73
2022/10/01 02:50:41;;;;;;;15.88;7.60;;;;;;;15.39;96.98;100762.31;5026666;28;20037;-73
2022/10/01 02:53:15;;;;;;;13.18;8.90;;;;;;;15.81;97.13;100856.09;5032844;28;20405;-73
2022/10/01 02:55:43;;;;;;;12.50;8.30;;;;;;;15.73;97.21;100841.22;5036797;28;20021;-74
2022/10/01 02:58:10;;;;;;;15.70;9.90;;;;;;;15.06;99.10;100714.31;5029408;28;20030;-74
2022/10/01 03:00:35;;;;;;;19.05;8.77;;;;;;;15.81;99.49;100856.09;5030609;28;20046;-73
2022/10/01 03:03:01;;;;;;;20.02;9.20;;;;;;;15.77;100.00;100857.03;5038624;28;20122;-74
2022/10/01 03:05:26;;;;;;;12.30;8.85;;;;;;;15.50;100.00;100810.66;5028147;28;20057;-73
2022/10/01 03:07:52;;;;;;;11.40;7.75;;;;;;;15.68;100.00;100853.59;5038228;28;20374;-74
2022/10/01 03:10:17;;;;;;;14.07;8.52;;;;;;;15.54;99.35;100859.09;5044872;28;20091;-72
2022/10/01 03:12:46;;;;;;;14.27;7.85;;;;;;;15.51;99.82;100875.00;5029055;28;20452;-73
2022/10/01 03:15:13;;;;;;;19.30;9.35;;;;;;;15.61;99.45;100881.91;5035188;28;20100;-73
2022/10/01 03:17:40;;;;;;;25.52;9.10;;;;;;;15.59;99.77;100878.41;5017876;28;20100;-73
2022/10/01 03:20:07;;;;;;;15.27;9.25;;;;;;;15.59;98.52;100886.34;5011780;28;20172;-73
2022/10/01 03:22:33;;;;;;;12.70;9.07;;;;;;;14.84;99.01;100768.31;5018089;28;20088;-74
2022/10/01 03:24:58;;;;;;;16.17;9.07;;;;;;;14.76;98.32;100736.72;5008053;28;20049;-72
2022/10/01 03:27:24;;;;;;;15.60;8.63;;;;;;;15.58;99.15;100892.53;5032410;28;20449;-75
2022/10/01 03:29:50;;;;;;;13.10;9.88;;;;;;;15.64;98.73;100895.13;5033711;28;21160;-73
2022/10/01 03:32:16;;;;;;;11.23;8.68;;;;;;;15.24;98.74;100818.03;5029470;28;20045;-73
2022/10/01 03:34:42;;;;;;;11.05;8.95;;;;;;;15.18;97.35;100797.84;5029263;28;20507;-73
2022/10/01 03:37:08;;;;;;;15.63;8.93;;;;;;;14.98;97.31;100742.59;5030145;28;20029;-72
2022/10/01 03:39:34;;;;;;;20.55;9.32;;;;;;;15.01;97.12;100776.03;5030268;28;20113;-72
2022/10/01 03:41:59;;;;;;;23.25;9.63;;;;;;;14.67;97.70;100728.91;5027876;28;20520;-73
2022/10/01 03:44:26;;;;;;;13.48;9.25;;;;;;;15.51;98.59;100878.50;5019717;28;20037;-73
2022/10/01 03:46:53;;;;;;;13.02;7.70;;;;;;;15.54;98.50;100888.19;5033210;28;20052;-73
2022/10/01 03:49:19;;;;;;;13.57;9.95;;;;;;;15.51;98.25;100881.16;5039977;28;20461;-73
2022/10/01 03:51:44;;;;;;;13.23;8.63;;;;;;;15.49;99.17;100890.00;5036294;28;20172;-73
2022/10/01 03:54:10;;;;;;;13.07;9.65;;;;;;;14.70;98.66;100745.59;5029154;28;20404;-73
2022/10/01 03:56:37;;;;;;;20.88;9.98;;;;;;;15.39;97.90;100842.53;5028895;28;20478;-74
2022/10/01 03:59:02;;;;;;;14.18;9.82;;;;;;;15.43;97.89;100851.31;5029077;28;20041;-73
2022/10/01 04:01:29;;;;;;;18.75;9.13;;;;;;;15.57;98.27;100883.75;5025741;28;20036;-74
2022/10/01 04:03:55;;;;;;;19.48;10.13;;;;;;;14.90;98.52;100765.59;5013672;28;20107;-74
2022/10/01 04:06:20;;;;;;;17.50;8.98;;;;;;;15.61;98.17;100869.56;5048656;28;20037;-73
2022/10/01 04:08:46;;;;;;;13.18;8.00;;;;;;;15.43;97.97;100846.00;5046928;28;20033;-74
2022/10/01 04:11:11;;;;;;;17.55;9.65;;;;;;;15.43;98.41;100860.97;5029079;28;20042;-74
2022/10/01 04:13:37;;;;;;;16.70;11.60;;;;;;;14.73;98.67;100753.47;5028516;28;20056;-73
2022/10/01 04:16:04;;;;;;;15.35;9.45;;;;;;;15.08;98.58;100805.03;5037586;28;20037;-73
2022/10/01 04:18:29;;;;;;;16.38;10.45;;;;;;;14.78;98.40;100762.22;5007650;28;20037;-74
2022/10/01 04:20:55;;;;;;;20.08;10.82;;;;;;;15.03;98.55;100798.94;5027987;28;20095;-74
2022/10/01 04:23:21;;;;;;;24.13;11.02;;;;;;;14.99;97.71;100790.16;5034214;28;20393;-73
2022/10/01 04:25:47;;;;;;;15.18;11.73;;;;;;;14.86;97.64;100772.69;5028531;28;20026;-74
2022/10/01 04:28:13;;;;;;;21.15;10.07;;;;;;;15.71;98.45;100920.63;5026130;28;20143;-75
2022/10/01 04:30:41;;;;;;;17.45;10.95;;;;;;;15.65;98.40;100914.50;5035087;28;20052;-73
2022/10/01 04:33:10;;;;;;;21.98;10.23;;;;;;;14.88;99.07;100797.31;5039816;28;20068;-73
2022/10/01 04:35:35;;;;;;;19.58;11.02;;;;;;;14.92;98.92;100788.47;5044626;28;20064;-74
2022/10/01 04:38:07;;;;;;;16.42;10.23;;;;;;;15.14;98.10;100801.41;5030776;28;20033;-72
2022/10/01 04:40:34;;;;;;;21.27;9.65;;;;;;;15.72;98.60;100917.06;5031513;28;20453;-73
2022/10/01 04:43:01;;;;;;;13.70;10.20;;;;;;;14.97;99.13;100789.28;5012080;28;20045;-73
2022/10/01 04:45:27;;;;;;;15.20;9.70;;;;;;;15.74;98.87;100922.34;5020329;28;20139;-74
2022/10/01 04:47:54;;;;;;;13.27;9.15;;;;;;;15.12;99.09;100821.72;5025525;28;20045;-74
2022/10/01 04:50:22;;;;;;;14.77;10.43;;;;;;;15.74;97.96;100922.34;5042050;28;20083;-74
2022/10/01 04:52:48;;;;;;;17.95;11.15;;;;;;;15.79;96.85;100918.75;5039304;28;20022;-74
2022/10/01 04:55:15;;;;;;;13.80;9.98;;;;;;;15.54;97.78;100883.75;5029616;28;20033;-73
2022/10/01 04:57:44;;;;;;;23.50;10.93;;;;;;;15.68;97.90;100922.38;5032571;28;20057;-73
2022/10/01 05:00:13;;;;;;;21.27;14.32;;;;;;;15.58;98.57;100925.16;5028120;28;20082;-75
2022/10/01 05:02:38;;;;;;;19.80;9.77;;;;;;;15.59;98.86;100910.16;5025339;28;20061;-74
2022/10/01 05:05:06;;;;;;;20.20;11.65;;;;;;;15.83;98.87;100941.63;5042311;28;20499;-74
2022/10/01 05:07:33;;;;;;;23.80;11.25;;;;;;;15.73;98.23;100910.00;5032463;28;20053;-74
2022/10/01 05:09:59;;;;;;;17.73;11.85;;;;;;;15.02;97.77;100793.66;5028090;28;20116;-73
2022/10/01 05:12:26;;;;;;;18.73;10.73;;;;;;;15.65;98.52;100903.91;5025755;28;20048;-75
2022/10/01 05:14:53;;;;;;;13.27;10.23;;;;;;;15.40;97.81;100843.38;5030516;28;20514;-74
2022/10/01 05:17:18;;;;;;;13.02;10.23;;;;;;;16.03;97.38;100929.88;5024924;28;20108;-74
2022/10/01 05:19:45;;;;;;;12.40;9.35;;;;;;;16.05;95.58;100930.75;5024576;28;20045;-73
2022/10/01 05:22:11;;;;;;;13.60;8.40;;;;;;;15.25;94.93;100796.88;5037442;28;20044;-73
2022/10/01 05:24:37;;;;;;;16.67;7.75;;;;;;;16.06;94.14;100943.09;5033037;28;20041;-74
2022/10/01 05:27:03;;;;;;;13.75;8.63;;;;;;;16.10;93.50;100965.97;5024301;28;20050;-73
2022/10/01 05:29:29;;;;;;;15.25;7.60;;;;;;;15.37;92.84;100807.28;5045638;28;20666;-74
2022/10/01 05:31:55;;;;;;;13.93;9.02;;;;;;;15.56;93.56;100850.22;5026611;28;20096;-73
2022/10/01 05:34:21;;;;;;;10.07;8.20;;;;;;;16.13;92.63;100917.38;5025506;28;20038;-74
2022/10/01 05:36:47;;;;;;;22.05;8.63;;;;;;;16.33;93.73;100952.41;5040654;28;20048;-74
2022/10/01 05:39:12;;;;;;;16.92;8.20;;;;;;;16.42;92.19;100960.19;5040926;28;20469;-74
2022/10/01 05:41:39;;;;;;;14.00;8.07;;;;;;;16.37;93.13;100943.50;5033264;28;20037;-73
2022/10/01 05:44:06;;;;;;;13.68;8.02;;;;;;;15.78;92.27;100827.03;5009531;28;20163;-74
2022/10/01 05:46:32;;;;;;;10.45;8.25;;;;;;;16.63;92.05;100963.44;5027197;28;20143;-74
2022/10/01 05:48:58;;;;;;;16.50;9.35;;;;;;;16.68;90.46;100974.81;5041931;28;20572;-74
2022/10/01 05:51:30;;;;;;;9.63;7.18;;;;;;;16.72;89.25;100967.72;5046817;28;20040;-75
2022/10/01 05:53:57;;;;;;;13.40;8.32;;;;;;;16.45;88.49;100891.28;5038199;28;20048;-74
2022/10/01 05:56:24;;;;;;;11.73;6.97;;;;;;;16.67;87.24;100906.84;5037208;28;20033;-74
2022/10/01 05:58:50;;;;;;;12.43;7.32;;;;;;;16.34;84.74;100829.69;5030634;28;20038;-73
2022/10/01 06:01:15;;;;;;;15.38;7.47;;;;;;;17.13;85.08;100947.56;5019089;28;20048;-75
2022/10/01 06:03:41;;;;;;;9.63;6.45;;;;;;;17.24;83.40;100948.25;5036486;28;20072;-75
2022/10/01 06:06:07;;;;;;;13.32;6.53;;;;;;;17.01;82.81;100866.47;5041610;28;20809;-74
2022/10/01 06:08:33;;;;;;;11.02;7.13;;;;;;;16.91;81.62;100815.41;5036287;28;20038;-75
2022/10/01 06:11:00;;;;;;;14.90;6.85;;;;;;;17.81;81.15;100961.28;5029420;28;20040;-74
2022/10/01 06:13:27;;;;;;;18.30;7.22;;;;;;;17.82;80.68;100938.28;5028907;28;20059;-76
2022/10/01 06:15:53;;;;;;;10.95;6.95;;;;;;;17.98;81.38;100926.41;5045436;28;20050;-75
2022/10/01 06:18:18;;;;;;;8.13;6.25;;;;;;;17.66;80.58;100844.81;5013470;28;20103;-74
2022/10/01 06:20:44;;;;;;;12.52;6.90;;;;;;;17.41;80.80;100809.97;5023879;28;20132;-73
2022/10/01 06:23:11;;;;;;;20.42;5.97;;;;;;;17.78;79.11;100867.53;5038724;28;20063;-74
2022/10/01 06:25:42;;;;;;;9.60;5.95;;;;;;;17.94;80.61;100850.38;5030452;28;20071;-74
2022/10/01 06:28:10;;;;;;;12.50;6.90;;;;;;;18.54;79.06;100965.84;5028786;28;20060;-74
2022/10/01 06:30:38;;;;;;;13.40;5.93;;;;;;;17.89;78.20;100812.47;5027054;28;20042;-76
2022/10/01 06:33:09;;;;;;;13.73;6.85;;;;;;;18.74;77.82;100947.63;5030174;28;20044;-74
2022/10/01 06:35:40;;;;;;;11.15;6.00;;;;;;;18.27;78.52;100838.06;5016026;28;20044;-74
2022/10/01 06:38:07;;;;;;;11.13;6.78;;;;;;;18.76;78.19;100907.72;5042359;28;20696;-74
2022/10/01 06:40:32;;;;;;;30.75;6.32;;;;;;;18.84;77.41;100916.38;5049082;28;20056;-74
2022/10/01 06:42:58;;;;;;;14.32;6.05;;;;;;;18.92;78.30;100943.66;5036628;28;20085;-74
2022/10/01 06:45:28;;;;;;;15.35;7.93;;;;;;;18.44;78.08;100834.09;4998486;28;20045;-73
2022/10/01 06:48:02;;;;;;;15.55;8.60;;;;;;;18.27;78.29;100806.19;5027401;28;20038;-74
2022/10/01 06:50:32;;;;;;;16.50;7.05;;;;;;;18.44;77.62;100799.56;5029207;28;20037;-74
2022/10/01 06:52:58;;;;;;;16.48;5.57;;;;;;;19.19;78.04;100920.75;5045270;28;21271;-74
2022/10/01 06:55:27;;;;;;;20.85;6.07;;;;;;;18.48;77.48;100770.22;5043513;28;20056;-75
2022/10/01 06:57:55;;;;;;;21.60;6.20;;;;;;;18.48;76.45;100778.19;5015926;28;20046;-74
2022/10/01 07:00:21;;;;;;;13.00;6.38;;;;;;;18.98;76.96;100852.19;5012228;28;20045;-74
2022/10/01 07:02:47;;;;;;;18.27;6.38;;;;;;;19.16;76.88;100875.63;5025544;28;20099;-73
2022/10/01 07:05:13;;;;;;;14.90;5.90;;;;;;;18.67;76.43;100783.88;5030451;28;20049;-73
2022/10/01 07:07:38;;;;;;;10.35;4.88;;;;;;;19.49;76.54;100904.84;5029297;28;20029;-75
2022/10/01 07:10:07;;;;;;;25.38;6.20;;;;;;;19.39;77.66;100874.09;5012552;28;20435;-75
2022/10/01 07:12:34;;;;;;;26.85;7.97;;;;;;;19.44;76.90;100871.31;5031365;28;20052;-75
2022/10/01 07:15:00;;;;;;;14.80;6.75;;;;;;;19.78;76.02;100920.00;5039997;28;20113;-75
2022/10/01 07:17:25;;;;;;;15.50;7.00;;;;;;;19.97;74.99;100924.75;5028259;28;20136;-74
2022/10/01 07:19:51;;;;;;;14.93;4.82;;;;;;;20.01;76.18;100923.75;5036601;28;20029;-74
2022/10/01 07:22:22;;;;;;;17.40;4.72;;;;;;;19.74;75.43;100869.53;5025007;28;20041;-76
2022/10/01 07:24:49;;;;;;;7.72;4.72;;;;;;;20.22;75.07;100912.41;5021016;28;20845;-75
2022/10/01 07:27:15;;;;;;;11.48;4.53;;;;;;;19.75;73.37;100810.03;5023485;28;20077;-75
2022/10/01 07:29:41;;;;;;;8.30;4.30;;;;;;;20.47;72.98;100916.94;5038889;28;20495;-77
2022/10/01 07:32:09;;;;;;;16.40;4.40;;;;;;;20.11;72.41;100823.97;5022088;28;20048;-74
2022/10/01 07:34:38;;;;;;;12.23;3.47;;;;;;;20.65;72.04;100887.03;5010983;28;20520;-76
2022/10/01 07:37:05;;;;;;;9.57;3.90;;;;;;;20.93;72.14;100920.78;5028239;28;20124;-77
2022/10/01 07:39:31;;;;;;;22.98;5.78;;;;;;;20.15;72.97;100787.41;5042593;28;20179;-74
2022/10/01 07:41:56;;;;;;;14.60;5.15;;;;;;;20.48;70.99;100825.38;5038230;28;20483;-76
2022/10/01 07:44:22;;;;;;;19.35;5.05;;;;;;;20.37;70.68;100793.78;5032952;28;20041;-74
2022/10/01 07:46:47;;;;;;;12.25;4.15;;;;;;;21.23;70.64;100924.13;5024243;28;20787;-74
2022/10/01 07:49:13;;;;;;;9.80;4.15;;;;;;;20.46;71.19;100773.91;5004858;28;20037;-77
2022/10/01 07:51:42;;;;;;;6.10;3.60;;;;;;;21.32;70.76;100898.91;5004779;28;20857;-75
2022/10/01 07:54:09;;;;;;;24.63;4.53;;;;;;;21.27;70.21;100884.84;5023257;28;20053;-77
2022/10/01 07:56:41;;;;;;;9.70;3.83;;;;;;;20.56;68.82;100775.38;5024081;28;20131;-75
2022/10/01 07:59:08;;;;;;;9.52;3.08;;;;;;;20.53;67.52;100762.09;5034764;28;20061;-76
2022/10/01 08:01:34;;;;;;;8.15;3.08;;;;;;;21.41;66.95;100895.91;5026202;28;20209;-74
2022/10/01 08:04:00;;;;;;;9.48;3.40;;;;;;;21.45;68.29;100886.00;5019752;28;20446;-76
2022/10/01 08:06:26;;;;;;;10.43;3.30;;;;;;;20.85;67.60;100763.63;5026120;28;20041;-75
2022/10/01 08:08:51;;;;;;;5.10;2.65;;;;;;;20.70;69.52;100734.88;5039029;28;20103;-75
2022/10/01 08:11:17;;;;;;;6.00;3.15;;;;;;;21.66;67.84;100878.97;5025714;28;20482;-76
2022/10/01 08:13:46;;;;;;;14.55;3.72;;;;;;;20.94;67.55;100748.22;5028956;28;20025;-78
2022/10/01 08:16:12;;;;;;;9.15;3.85;;;;;;;21.87;64.89;100893.31;5005681;28;20034;-78
2022/10/01 08:18:41;;;;;;;12.52;4.88;;;;;;;21.21;65.39;100765.84;5020811;28;20097;-79
2022/10/01 08:21:07;;;;;;;16.10;4.03;;;;;;;20.69;66.16;100673.56;5021665;28;20059;-81
2022/10/01 08:23:34;;;;;;;6.50;3.10;;;;;;;21.31;66.17;100769.03;5036378;28;20472;-80
2022/10/01 08:26:06;;;;;;;4.47;2.50;;;;;;;21.34;66.98;100778.72;5018229;28;20096;-79
2022/10/01 08:28:33;;;;;;;25.67;4.27;;;;;;;21.56;67.36;100794.78;5020228;28;20044;-77
2022/10/01 08:31:05;;;;;;;8.90;3.00;;;;;;;21.81;64.81;100805.38;5018923;28;20045;-79
2022/10/01 08:33:30;;;;;;;6.40;3.40;;;;;;;22.19;67.35;100875.09;5018645;28;20053;-78
2022/10/01 08:36:00;;;;;;;14.05;4.13;;;;;;;21.56;63.73;100733.38;5018080;28;20109;-76
2022/10/01 08:38:25;;;;;;;11.90;4.28;;;;;;;21.78;63.03;100736.03;5016076;28;20581;-77
2022/10/01 08:40:51;;;;;;;12.25;4.82;;;;;;;22.40;61.64;100803.84;5019242;28;20030;-74
2022/10/01 08:43:28;;;;;;;10.52;5.20;;;;;;;23.12;60.20;100864.94;5024686;28;20403;-75
2022/10/01 08:45:57;;;;;;;12.52;5.03;;;;;;;23.04;60.27;100842.97;5020600;28;20105;-77
2022/10/01 08:48:29;;;;;;;16.60;6.28;;;;;;;23.30;59.95;100845.34;5024425;28;20037;-76
2022/10/01 08:51:01;;;;;;;15.10;6.30;;;;;;;22.91;58.21;100732.91;5038425;28;20048;-78
2022/10/01 08:53:44;;;;;;;11.60;6.22;;;;;;;22.57;59.17;100680.97;5042679;28;20049;-76
2022/10/01 08:56:30;;;;;;;13.98;7.32;;;;;;;22.73;59.99;100714.09;5036769;28;20041;-76
2022/10/01 08:58:59;;;;;;;19.33;5.60;;;;;;;23.38;59.60;100810.16;5029086;28;20055;-76
2022/10/01 09:01:28;;;;;;;14.20;5.63;;;;;;;23.55;58.81;100799.53;5014930;28;20115;-76
2022/10/01 09:03:55;;;;;;;11.82;6.40;;;;;;;23.03;58.88;100702.91;5025653;28;20050;-76
2022/10/01 09:06:26;;;;;;;13.35;5.75;;;;;;;23.80;58.54;100807.28;5035010;28;20075;-76
2022/10/01 09:08:55;;;;;;;20.90;6.13;;;;;;;24.01;58.36;100815.22;5011973;28;20085;-77
2022/10/01 09:11:40;;;;;;;9.52;5.25;;;;;;;24.01;59.16;100804.50;5028143;28;20170;-75
2022/10/01 09:14:42;;;;;;;15.48;5.65;;;;;;;24.10;57.62;100804.03;5022394;28;20053;-77
2022/10/01 09:17:29;;;;;;;13.82;4.57;;;;;;;23.61;55.55;100683.16;4994595;28;20045;-75
2022/10/01 09:20:00;;;;;;;13.57;6.05;;;;;;;24.37;55.00;100804.47;5029791;28;20118;-76
2022/10/01 09:22:30;;;;;;;15.90;6.13;;;;;;;24.43;55.94;100797.91;5029614;28;20060;-76
2022/10/01 09:25:23;;;;;;;13.60;5.28;;;;;;;24.67;54.83;100795.78;5028264;28;20042;-76
2022/10/01 09:27:50;;;;;;;11.77;5.97;;;;;;;24.70;53.96;100766.13;5026497;28;20037;-74
2022/10/01 09:30:20;;;;;;;10.80;5.47;;;;;;;24.78;53.92;100801.44;5023300;28;20124;-77
2022/10/01 09:33:14;;;;;;;13.35;5.30;;;;;;;24.74;55.01;100801.69;5020942;28;20129;-76
2022/10/01 09:36:06;;;;;;;10.82;5.90;;;;;;;24.80;55.61;100796.88;5000193;28;20405;-75
2022/10/01 09:38:42;;;;;;;8.57;5.47;;;;;;;24.87;55.05;100794.72;4991458;28;20061;-76
2022/10/01 09:41:13;;;;;;;15.27;6.30;;;;;;;24.70;55.64;100765.22;5006463;28;20100;-75
2022/10/01 09:43:41;;;;;;;20.90;6.57;;;;;;;24.03;54.83;100663.19;5020927;28;20052;-76
2022/10/01 09:46:14;;;;;;;9.68;4.57;;;;;;;24.32;54.61;100703.69;5023290;28;20113;-75
2022/10/01 09:48:55;;;;;;;10.20;5.07;;;;;;;24.83;54.34;100777.03;5025899;28;20153;-77
2022/10/01 09:51:27;;;;;;;20.42;6.18;;;;;;;24.30;53.32;100676.09;5024382;28;20441;-76
2022/10/01 09:54:12;;;;;;;29.80;7.40;;;;;;;25.09;52.62;100799.78;5026935;28;20041;-76
2022/10/01 09:56:43;;;;;;;12.65;5.68;;;;;;;25.16;53.21;100800.34;5023128;28;20812;-73
2022/10/01 09:59:27;;;;;;;16.00;4.93;;;;;;;25.02;53.49;100769.72;5028546;28;20446;-77
2022/10/01 10:01:57;;;;;;;9.68;5.40;;;;;;;25.06;54.12;100752.50;5019254;28;20041;-76
2022/10/01 10:04:23;;;;;;;11.50;4.25;;;;;;;24.38;54.71;100650.59;5017206;28;20117;-76
2022/10/01 10:07:07;;;;;;;19.33;6.63;;;;;;;24.38;54.80;100641.69;5021320;28;21114;-76
2022/10/01 10:09:34;;;;;;;15.63;6.00;;;;;;;24.67;53.63;100683.06;5032267;28;20071;-77
2022/10/01 10:12:01;;;;;;;10.82;5.75;;;;;;;24.48;52.74;100636.72;5038980;28;20123;-77
2022/10/01 10:14:33;;;;;;;9.55;4.70;;;;;;;25.20;53.64;100746.41;5027708;28;20104;-76
2022/10/01 10:17:06;;;;;;;13.40;6.55;;;;;;;25.14;54.23;100741.31;5031736;28;20056;-77
2022/10/01 10:19:32;;;;;;;11.77;6.30;;;;;;;25.22;53.41;100736.44;5025717;28;20029;-76
2022/10/01 10:22:22;;;;;;;14.68;5.38;;;;;;;25.25;51.31;100725.50;5023691;28;20041;-77
2022/10/01 10:24:47;;;;;;;9.23;4.10;;;;;;;24.95;52.04;100668.13;5027612;28;20068;-76
2022/10/01 10:27:31;;;;;;;15.40;5.35;;;;;;;25.68;52.19;100738.31;5030741;28;20486;-76
2022/10/01 10:30:17;;;;;;;13.40;6.38;;;;;;;25.01;54.79;100624.81;5022302;28;20050;-74
2022/10/01 10:32:45;;;;;;;10.63;5.43;;;;;;;25.17;54.90;100657.03;4996174;28;20049;-77
2022/10/01 10:35:16;;;;;;;19.50;5.50;;;;;;;25.27;51.09;100658.28;5016428;28;20245;-76
2022/10/01 10:37:48;;;;;;;9.90;4.47;;;;;;;26.08;50.67;100747.66;5014845;28;20029;-76
2022/10/01 10:40:20;;;;;;;10.70;5.30;;;;;;;26.40;49.36;100741.28;5019688;28;20105;-76
2022/10/01 10:42:49;;;;;;;12.27;6.55;;;;;;;26.41;49.33;100711.59;5018417;28;20130;-75
2022/10/01 10:45:19;;;;;;;18.35;5.00;;;;;;;26.01;47.47;100645.88;5001085;28;20038;-75
2022/10/01 10:47:51;;;;;;;6.45;4.05;;;;;;;25.18;48.03;100522.69;5017343;28;20052;-75
2022/10/01 10:50:28;;;;;;;9.40;4.72;;;;;;;26.24;48.85;100715.28;5012365;28;20477;-75
2022/10/01 10:52:55;;;;;;;15.80;4.55;;;;;;;25.85;48.69;100632.50;4990458;28;22989;-77
2022/10/01 10:55:30;;;;;;;17.33;5.28;;;;;;;26.39;48.88;100726.97;5008435;28;20056;-77
2022/10/01 10:58:16;;;;;;;9.10;4.82;;;;;;;26.47;48.46;100713.88;5016734;28;20132;-76
2022/10/01 11:00:51;;;;;;;9.63;3.85;;;;;;;26.17;48.24;100673.56;5004826;28;20129;-77
2022/10/01 11:03:21;;;;;;;10.75;6.05;;;;;;;26.21;49.94;100691.28;5023768;28;20038;-76
2022/10/01 11:05:50;;;;;;;11.25;6.07;;;;;;;26.07;48.18;100681.34;4997661;28;20054;-77
2022/10/01 11:08:26;;;;;;;23.05;7.20;;;;;;;26.30;48.69;100711.38;5010628;28;20076;-76
2022/10/01 11:11:14;;;;;;;14.90;5.20;;;;;;;26.21;48.43;100712.78;5007611;28;20037;-77
2022/10/01 11:14:16;;;;;;;10.52;3.50;;;;;;;26.06;48.13;100671.56;5006964;28;20044;-76
2022/10/01 11:16:53;;;;;;;10.48;4.80;;;;;;;26.30;48.31;100706.00;4991849;28;20041;-76
2022/10/01 11:19:30;;;;;;;14.82;4.90;;;;;;;26.31;47.80;100708.56;5014138;28;20021;-77
2022/10/01 11:22:00;;;;;;;10.38;5.28;;;;;;;26.38;48.16;100705.53;5003709;28;20042;-78
2022/10/01 11:25:04;;;;;;;13.32;4.68;;;;;;;26.38;48.51;100692.91;5003923;28;20053;-77
2022/10/01 11:27:39;;;;;;;10.30;5.43;;;;;;;26.53;47.09;100701.91;4999113;28;20095;-77
2022/10/01 11:30:19;;;;;;;8.57;5.13;;;;;;;26.53;48.52;100691.13;5003413;28;20084;-78